Time;durP1;ratioP1;P1;durP2;ratioP2;P2;SDS_P1;SDS_P2;PMS_P1;PMS_P2;Temp;Humidity;BMP_temperature;BMP_pressure;BME280_temperature;BME280_humidity;BME280_pressure;Samples;Min_cycle;Max_cycle;Signal;HPM_P1;HPM_P2
2023/01/02 00:01:16;;;;;;;0.60;0.20;;;14.90;75.80;;;;;;5034095;28;20128;-79
2023/01/02 00:03:42;;;;;;;0.30;0.30;;;14.90;75.80;;;;;;5033976;28;20104;-79
2023/01/02 00:06:08;;;;;;;0.45;0.30;;;15.00;75.80;;;;;;5035371;28;20093;-79
2023/01/02 00:08:33;;;;;;;0.47;0.30;;;15.00;75.80;;;;;;5035300;28;20033;-79
2023/01/02 00:10:59;;;;;;;0.25;0.25;;;14.90;75.80;;;;;;5033814;28;20040;-79
2023/01/02 00:13:25;;;;;;;0.20;0.20;;;15.00;75.80;;;;;;5035254;28;20060;-79
2023/01/02 00:15:50;;;;;;;0.50;0.50;;;14.90;75.80;;;;;;5034065;28;20026;-79
2023/01/02 00:18:16;;;;;;;0.13;0.13;;;14.90;76.70;;;;;;5033444;28;20025;-79
2023/01/02 00:20:41;;;;;;;0.30;0.20;;;15.00;75.80;;;;;;5013976;28;20382;-79
2023/01/02 00:23:07;;;;;;;0.40;0.30;;;14.90;75.80;;;;;;5014075;28;20499;-79
2023/01/02 00:25:33;;;;;;;0.30;0.30;;;15.00;75.90;;;;;;5013986;28;20042;-79
2023/01/02 00:27:59;;;;;;;0.77;0.45;;;15.00;75.90;;;;;;5013944;28;20515;-79
2023/01/02 00:30:25;;;;;;;0.28;0.28;;;15.00;75.80;;;;;;5014985;28;20064;-79
2023/01/02 00:32:51;;;;;;;0.10;0.10;;;14.90;75.80;;;;;;5014846;28;20077;-79
2023/01/02 00:35:16;;;;;;;0.20;0.20;;;14.90;75.80;;;;;;5015094;28;20025;-79
2023/01/02 00:37:42;;;;;;;0.38;0.30;;;14.90;75.80;;;;;;5014915;28;20022;-79
2023/01/02 00:40:12;;;;;;;0.32;0.30;;;14.90;75.80;;;;;;5014083;28;20032;-79
2023/01/02 00:42:41;;;;;;;0.30;0.30;;;15.00;75.90;;;;;;5014627;28;20464;-79
2023/01/02 00:45:08;;;;;;;0.38;0.20;;;14.90;75.80;;;;;;5013814;28;20088;-79
2023/01/02 00:47:34;;;;;;;0.20;0.20;;;14.90;75.80;;;;;;5027121;28;20021;-79
2023/01/02 00:49:59;;;;;;;0.20;0.20;;;14.90;75.80;;;;;;5034513;28;20451;-79
2023/01/02 00:52:25;;;;;;;0.35;0.25;;;14.90;75.90;;;;;;5014615;28;20061;-80
2023/01/02 00:54:51;;;;;;;0.65;0.25;;;14.90;75.80;;;;;;5014818;28;20072;-79
2023/01/02 00:57:17;;;;;;;0.30;0.30;;;14.90;75.80;;;;;;5046347;28;20026;-79
2023/01/02 00:59:44;;;;;;;0.30;0.30;;;14.90;75.80;;;;;;5014397;28;20029;-79
2023/01/02 01:02:11;;;;;;;0.43;0.30;;;14.90;76.00;;;;;;5029324;28;20042;-79
2023/01/02 01:04:38;;;;;;;0.10;0.10;;;14.90;75.80;;;;;;5021528;28;20029;-79
2023/01/02 01:07:05;;;;;;;0.85;0.40;;;14.90;75.80;;;;;;5034057;28;20495;-79
2023/01/02 01:09:31;;;;;;;0.10;0.10;;;14.90;75.80;;;;;;5034270;28;20558;-79
2023/01/02 01:11:58;;;;;;;0.30;0.30;;;14.90;75.80;;;;;;5033156;28;20040;-79
2023/01/02 01:14:25;;;;;;;0.28;0.28;;;14.90;75.80;;;;;;5034136;28;20028;-79
2023/01/02 01:16:52;;;;;;;0.30;0.20;;;14.90;75.80;;;;;;5033740;28;20531;-79
2023/01/02 01:19:21;;;;;;;0.38;0.20;;;14.90;75.80;;;;;;5032936;28;20083;-79
2023/01/02 01:21:48;;;;;;;0.43;0.20;;;14.90;75.80;;;;;;5032502;28;20148;-79
2023/01/02 01:24:15;;;;;;;0.77;0.38;;;14.90;75.80;;;;;;5033850;28;20029;-79
2023/01/02 01:26:42;;;;;;;0.20;0.20;;;14.90;75.90;;;;;;5032579;28;20025;-79
2023/01/02 01:29:08;;;;;;;0.25;0.22;;;14.90;75.90;;;;;;5033646;28;20108;-79
2023/01/02 01:31:35;;;;;;;0.17;0.17;;;14.90;75.80;;;;;;5033590;28;20543;-79
2023/01/02 01:34:05;;;;;;;0.20;0.17;;;14.90;75.80;;;;;;5033906;28;20480;-79
2023/01/02 01:36:31;;;;;;;0.35;0.10;;;14.90;75.90;;;;;;5032494;28;20026;-79
2023/01/02 01:39:00;;;;;;;0.45;0.30;;;14.90;75.90;;;;;;5032526;28;20037;-79
2023/01/02 01:41:27;;;;;;;0.17;0.17;;;14.90;75.90;;;;;;5033644;28;20045;-79
2023/01/02 01:43:58;;;;;;;0.10;0.10;;;14.90;75.90;;;;;;5032192;28;20143;-79
2023/01/02 01:46:40;;;;;;;0.10;0.10;;;14.90;75.80;;;;;;5033376;28;20049;-79
2023/01/02 01:49:21;;;;;;;0.10;0.10;;;14.90;75.80;;;;;;5033211;28;20035;-79
2023/01/02 01:51:59;;;;;;;0.25;0.20;;;14.90;75.80;;;;;;5065082;28;20033;-79
2023/01/02 01:54:35;;;;;;;0.30;0.20;;;14.90;75.90;;;;;;5028749;28;20026;-79
2023/01/02 01:57:11;;;;;;;0.20;0.20;;;14.90;75.90;;;;;;5013497;28;20067;-79
2023/01/02 01:59:38;;;;;;;0.32;0.20;;;14.90;76.00;;;;;;5012037;28;20021;-79
2023/01/02 02:02:05;;;;;;;0.25;0.10;;;14.90;75.80;;;;;;5012040;28;20045;-79
2023/01/02 02:04:34;;;;;;;0.30;0.30;;;14.90;75.90;;;;;;5012223;28;20033;-79
2023/01/02 02:07:01;;;;;;;0.10;0.10;;;14.90;75.80;;;;;;5013207;28;20026;-79
2023/01/02 02:09:48;;;;;;;0.20;0.20;;;14.90;75.90;;;;;;4995962;28;20071;-79
2023/01/02 02:12:16;;;;;;;0.15;0.15;;;14.90;75.90;;;;;;5011999;28;20029;-79
2023/01/02 02:14:43;;;;;;;0.30;0.20;;;14.90;75.90;;;;;;4995592;28;20025;-79
2023/01/02 02:17:28;;;;;;;0.55;0.17;;;14.80;75.80;;;;;;5013335;28;20022;-79
2023/01/02 02:20:10;;;;;;;0.85;0.30;;;14.90;75.90;;;;;;4995694;28;20072;-79
2023/01/02 02:23:00;;;;;;;0.20;0.20;;;14.90;75.80;;;;;;5011794;28;20030;-79
2023/01/02 02:25:54;;;;;;;0.50;0.20;;;14.90;75.80;;;;;;5013042;28;20057;-79
2023/01/02 02:28:26;;;;;;;0.30;0.30;;;14.90;75.90;;;;;;5011603;28;20057;-79
2023/01/02 02:31:05;;;;;;;0.20;0.20;;;14.80;75.80;;;;;;5012789;28;20036;-79
2023/01/02 02:33:49;;;;;;;0.32;0.15;;;14.90;75.90;;;;;;5011791;28;20026;-79
2023/01/02 02:36:25;;;;;;;0.38;0.20;;;14.90;75.90;;;;;;5011859;28;20120;-79
2023/01/02 02:39:09;;;;;;;0.35;0.30;;;14.90;75.90;;;;;;5011547;28;20029;-79
2023/01/02 02:41:44;;;;;;;0.55;0.20;;;14.90;75.90;;;;;;5011458;28;20057;-79
2023/01/02 02:44:31;;;;;;;0.15;0.10;;;14.90;75.90;;;;;;5011630;28;20025;-79
2023/01/02 02:47:04;;;;;;;0.13;0.13;;;14.80;75.90;;;;;;5014439;28;20025;-79
2023/01/02 02:49:42;;;;;;;0.65;0.20;;;14.90;75.90;;;;;;5032351;28;20175;-79
2023/01/02 02:52:12;;;;;;;0.25;0.20;;;14.90;75.90;;;;;;5032272;28;20369;-79
2023/01/02 02:54:59;;;;;;;0.10;0.10;;;14.90;75.90;;;;;;5026087;28;20018;-79
2023/01/02 02:57:24;;;;;;;0.10;0.10;;;14.90;76.00;;;;;;5011320;28;20018;-79
2023/01/02 02:59:50;;;;;;;0.20;0.20;;;14.90;75.90;;;;;;5011523;28;20029;-79
2023/01/02 03:02:16;;;;;;;0.20;0.20;;;14.80;75.90;;;;;;5011076;28;20046;-79
2023/01/02 03:04:46;;;;;;;0.32;0.30;;;14.90;75.90;;;;;;5012755;28;20030;-79
2023/01/02 03:07:21;;;;;;;0.50;0.30;;;14.90;75.90;;;;;;5011446;28;20022;-79
2023/01/02 03:10:03;;;;;;;0.40;0.10;;;14.90;75.90;;;;;;5012555;28;20036;-79
2023/01/02 03:12:47;;;;;;;0.20;0.20;;;14.90;75.90;;;;;;4994709;28;20037;-79
2023/01/02 03:15:23;;;;;;;0.13;0.13;;;14.80;75.90;;;;;;5011631;28;20064;-79
2023/01/02 03:18:24;;;;;;;0.45;0.20;;;14.80;75.90;;;;;;5011274;28;20432;-79
2023/01/02 03:20:59;;;;;;;0.50;0.20;;;14.80;75.90;;;;;;4990726;28;20061;-79
2023/01/02 03:23:25;;;;;;;0.30;0.15;;;14.90;76.00;;;;;;4974368;28;20069;-79
2023/01/02 03:25:51;;;;;;;0.10;0.10;;;14.80;75.90;;;;;;4958117;28;20065;-79
2023/01/02 03:28:18;;;;;;;0.20;0.20;;;14.90;76.00;;;;;;4974422;28;20045;-79
2023/01/02 03:30:44;;;;;;;0.13;0.13;;;14.90;76.00;;;;;;4990552;28;20605;-79
2023/01/02 03:33:14;;;;;;;0.10;0.10;;;14.80;76.00;;;;;;4990700;28;20085;-79
2023/01/02 03:35:52;;;;;;;0.63;0.45;;;14.80;76.00;;;;;;4978171;28;20034;-79
2023/01/02 03:38:30;;;;;;;0.28;0.28;;;14.80;75.90;;;;;;4994429;28;20019;-79
2023/01/02 03:41:08;;;;;;;0.25;0.10;;;14.90;76.00;;;;;;4993871;28;20034;-79
2023/01/02 03:43:34;;;;;;;0.13;0.13;;;14.80;75.90;;;;;;4978004;28;20030;-79
2023/01/02 03:46:26;;;;;;;0.13;0.13;;;14.80;75.90;;;;;;4977992;28;20034;-79
2023/01/02 03:48:55;;;;;;;0.20;0.20;;;14.80;75.90;;;;;;4994827;28;20038;-79
2023/01/02 03:51:21;;;;;;;0.20;0.10;;;14.80;75.90;;;;;;5013730;28;20034;-79
2023/01/02 03:53:48;;;;;;;0.20;0.20;;;14.80;75.90;;;;;;5013643;28;20030;-79
2023/01/02 03:56:37;;;;;;;0.35;0.20;;;14.80;75.90;;;;;;5032629;28;20025;-79
2023/01/02 03:59:07;;;;;;;0.10;0.10;;;14.80;75.90;;;;;;5034094;28;20430;-79
2023/01/02 04:01:43;;;;;;;0.10;0.10;;;14.80;76.00;;;;;;5034144;28;20492;-79
2023/01/02 04:04:15;;;;;;;0.20;0.20;;;14.80;75.90;;;;;;5034197;28;20032;-79
2023/01/02 04:06:42;;;;;;;0.10;0.10;;;14.80;75.90;;;;;;5035213;28;20021;-79
2023/01/02 04:09:09;;;;;;;0.13;0.13;;;14.80;75.90;;;;;;5017686;28;20026;-79
2023/01/02 04:11:36;;;;;;;0.30;0.20;;;14.80;76.00;;;;;;5017439;28;20459;-79
2023/01/02 04:14:06;;;;;;;0.10;0.10;;;14.80;75.90;;;;;;5017541;28;20380;-80
2023/01/02 04:16:33;;;;;;;0.10;0.10;;;14.80;75.90;;;;;;5018201;28;20029;-79
2023/01/02 04:19:09;;;;;;;1.08;0.47;;;14.80;75.90;;;;;;5001036;28;20503;-79
2023/01/02 04:21:37;;;;;;;0.10;0.10;;;14.80;75.90;;;;;;5018077;28;20029;-79
2023/01/02 04:24:11;;;;;;;0.50;0.22;;;14.80;75.90;;;;;;5017294;28;20040;-79
2023/01/02 04:26:53;;;;;;;0.20;0.10;;;14.80;75.90;;;;;;5017869;28;20060;-79
2023/01/02 04:29:19;;;;;;;0.30;0.20;;;14.80;75.90;;;;;;5017597;28;20152;-79
2023/01/02 04:31:58;;;;;;;0.20;0.20;;;14.80;75.90;;;;;;5033661;28;20515;-79
2023/01/02 04:34:24;;;;;;;0.17;0.17;;;14.80;75.90;;;;;;5018152;28;20030;-79
2023/01/02 04:36:49;;;;;;;0.10;0.10;;;14.80;75.90;;;;;;5016983;28;20029;-79
2023/01/02 04:39:16;;;;;;;0.52;0.20;;;14.80;75.90;;;;;;5033218;28;20029;-79
2023/01/02 04:41:42;;;;;;;0.50;0.20;;;14.80;75.90;;;;;;5017095;28;20029;-79
2023/01/02 04:44:07;;;;;;;0.30;0.20;;;14.80;75.90;;;;;;5016984;28;20025;-79
2023/01/02 04:46:33;;;;;;;0.10;0.10;;;14.80;76.00;;;;;;5034690;28;20171;-79
2023/01/02 04:48:58;;;;;;;0.10;0.10;;;14.80;76.90;;;;;;5034296;28;20029;-79
2023/01/02 04:51:24;;;;;;;0.20;0.20;;;14.80;75.90;;;;;;5033193;28;20040;-79
2023/01/02 04:53:50;;;;;;;0.20;0.20;;;14.80;76.00;;;;;;5033148;28;20018;-79
2023/01/02 04:56:16;;;;;;;0.40;0.10;;;14.80;76.00;;;;;;5014720;28;20022;-79
2023/01/02 04:58:42;;;;;;;0.10;0.10;;;14.80;76.00;;;;;;5013343;28;20022;-79
2023/01/02 05:01:09;;;;;;;0.15;0.10;;;14.80;76.00;;;;;;5014333;28;20109;-79
2023/01/02 05:03:40;;;;;;;0.10;0.10;;;14.80;76.00;;;;;;5013243;28;20026;-79
2023/01/02 05:06:06;;;;;;;0.52;0.20;;;14.80;76.00;;;;;;4996839;28;20025;-79
2023/01/02 05:08:32;;;;;;;0.35;0.25;;;14.80;75.90;;;;;;5013204;28;20562;-79
2023/01/02 05:11:05;;;;;;;0.20;0.20;;;14.80;76.00;;;;;;5014127;28;20044;-79
2023/01/02 05:13:31;;;;;;;0.10;0.10;;;14.80;75.90;;;;;;5013214;28;20014;-79
2023/01/02 05:15:57;;;;;;;0.10;0.10;;;14.80;76.00;;;;;;5014402;28;20395;-79
2023/01/02 05:18:22;;;;;;;0.15;0.15;;;14.80;76.00;;;;;;5014264;28;20544;-79
2023/01/02 05:20:48;;;;;;;0.30;0.20;;;14.80;75.90;;;;;;5012981;28;20029;-79
2023/01/02 05:25:58;;;;;;;0.13;0.13;;;14.80;76.00;;;;;;5014137;28;20562;-79
2023/01/02 05:28:24;;;;;;;0.05;0.05;;;14.80;76.00;;;;;;5014105;28;20030;-79
2023/01/02 05:30:49;;;;;;;0.10;0.10;;;14.80;76.00;;;;;;5012637;28;20025;-79
2023/01/02 05:33:15;;;;;;;0.10;0.10;;;14.80;75.90;;;;;;5014065;28;20064;-79
2023/01/02 05:35:40;;;;;;;0.40;0.30;;;14.80;75.90;;;;;;5012515;28;20084;-79
2023/01/02 05:38:06;;;;;;;0.30;0.10;;;14.80;75.90;;;;;;5013786;28;20079;-80
2023/01/02 05:40:32;;;;;;;0.10;0.10;;;14.80;75.90;;;;;;5014021;28;20108;-80
2023/01/02 05:42:58;;;;;;;0.10;0.10;;;14.80;76.00;;;;;;5012489;28;20096;-80
2023/01/02 05:45:24;;;;;;;0.10;0.10;;;14.80;76.00;;;;;;5012441;28;20190;-80
2023/01/02 05:47:49;;;;;;;0.20;0.10;;;14.80;76.00;;;;;;5021388;28;20022;-79
2023/01/02 05:50:15;;;;;;;0.20;0.10;;;14.80;76.00;;;;;;5033149;28;20108;-80
2023/01/02 05:52:41;;;;;;;0.20;0.10;;;14.80;76.00;;;;;;5032172;28;20028;-80
2023/01/02 05:55:06;;;;;;;0.30;0.30;;;14.70;75.90;;;;;;5032115;28;20053;-79
2023/01/02 05:57:34;;;;;;;0.17;0.10;;;14.80;76.00;;;;;;5032879;28;20014;-80
2023/01/02 05:59:59;;;;;;;0.10;0.10;;;14.80;76.00;;;;;;5031908;28;20025;-79
2023/01/02 06:02:25;;;;;;;1.65;0.30;;;14.70;75.90;;;;;;5031658;28;20409;-80
2023/01/02 06:04:51;;;;;;;0.10;0.10;;;14.80;76.10;;;;;;5015250;28;20516;-80
2023/01/02 06:07:16;;;;;;;0.10;0.10;;;14.80;76.00;;;;;;5033260;28;20449;-80
2023/01/02 06:09:42;;;;;;;0.10;0.10;;;14.80;75.90;;;;;;5032981;28;20425;-79
2023/01/02 06:12:07;;;;;;;0.52;0.00;;;14.80;75.90;;;;;;5031837;28;20057;-79
2023/01/02 06:14:33;;;;;;;0.10;0.10;;;14.70;75.90;;;;;;5033030;28;20076;-79
2023/01/02 06:16:59;;;;;;;0.10;0.10;;;14.70;75.90;;;;;;5031721;28;20022;-79
2023/01/02 06:19:24;;;;;;;0.17;0.10;;;14.70;75.90;;;;;;5031333;28;20029;-79
2023/01/02 06:21:50;;;;;;;0.10;0.10;;;14.70;75.90;;;;;;5032863;28;20022;-80
2023/01/02 06:24:16;;;;;;;0.10;0.00;;;14.80;76.00;;;;;;5032799;28;20029;-79
2023/01/02 06:26:41;;;;;;;0.10;0.10;;;14.70;75.80;;;;;;5031663;28;20026;-79
2023/01/02 06:29:08;;;;;;;0.20;0.10;;;14.70;75.90;;;;;;5031511;28;20030;-79
2023/01/02 06:31:33;;;;;;;0.77;0.10;;;14.70;75.90;;;;;;5031313;28;20029;-80
2023/01/02 06:34:00;;;;;;;0.10;0.10;;;14.70;76.00;;;;;;5031298;28;20396;-79
2023/01/02 06:36:27;;;;;;;0.10;0.10;;;14.70;75.90;;;;;;5031704;28;20057;-79
2023/01/02 06:38:53;;;;;;;0.03;0.00;;;14.70;75.80;;;;;;5031432;28;20021;-79
2023/01/02 06:41:19;;;;;;;0.95;0.20;;;14.70;75.90;;;;;;5031448;28;20031;-80
2023/01/02 06:43:46;;;;;;;0.35;0.20;;;14.70;75.90;;;;;;5032399;28;20108;-79
2023/01/02 06:46:12;;;;;;;0.20;0.20;;;14.70;76.00;;;;;;5032625;28;20021;-80
2023/01/02 06:48:38;;;;;;;0.40;0.10;;;14.70;76.00;;;;;;5032300;28;20044;-79
2023/01/02 06:51:07;;;;;;;1.13;0.17;;;14.70;75.90;;;;;;5032364;28;20034;-79
2023/01/02 06:53:37;;;;;;;0.10;0.10;;;14.70;75.90;;;;;;5031266;28;20396;-79
2023/01/02 06:56:02;;;;;;;0.10;0.10;;;14.70;76.00;;;;;;5014489;28;20578;-79
2023/01/02 06:58:29;;;;;;;0.10;0.10;;;14.70;75.90;;;;;;5012715;28;20026;-79
2023/01/02 07:00:59;;;;;;;0.00;0.00;;;14.70;75.90;;;;;;5011474;28;20029;-79
2023/01/02 07:03:25;;;;;;;0.52;0.30;;;14.70;76.00;;;;;;5011222;28;20104;-79
2023/01/02 07:05:50;;;;;;;0.00;0.00;;;14.70;76.00;;;;;;5012377;28;20034;-79
2023/01/02 07:08:16;;;;;;;0.10;0.10;;;14.70;76.00;;;;;;5012640;28;20389;-79
2023/01/02 07:10:42;;;;;;;0.10;0.10;;;14.70;76.90;;;;;;5015278;28;20522;-79
2023/01/02 07:13:07;;;;;;;0.10;0.10;;;14.70;75.90;;;;;;5016541;28;20488;-79
2023/01/02 07:15:33;;;;;;;0.20;0.00;;;14.70;76.00;;;;;;5016574;28;20022;-79
2023/01/02 07:17:58;;;;;;;0.20;0.10;;;14.70;76.00;;;;;;5016322;28;20419;-79
2023/01/02 07:20:24;;;;;;;0.20;0.20;;;14.70;76.00;;;;;;5016484;28;20041;-80
2023/01/02 07:22:50;;;;;;;0.38;0.10;;;14.70;76.00;;;;;;5016297;28;20053;-79
2023/01/02 07:25:17;;;;;;;0.15;0.10;;;14.70;75.90;;;;;;5015383;28;20501;-79
2023/01/02 07:27:42;;;;;;;0.10;0.10;;;14.70;75.90;;;;;;5015241;28;20030;-80
2023/01/02 07:30:09;;;;;;;0.10;0.10;;;14.70;75.90;;;;;;5015055;28;20041;-79
2023/01/02 07:32:34;;;;;;;0.20;0.10;;;14.70;75.90;;;;;;5015825;28;20037;-79
2023/01/02 07:35:00;;;;;;;0.75;0.10;;;14.70;75.90;;;;;;5016036;28;20022;-79
2023/01/02 07:37:26;;;;;;;0.20;0.10;;;14.70;75.90;;;;;;5015039;28;20022;-79
2023/01/02 07:39:51;;;;;;;0.60;0.25;;;14.70;75.90;;;;;;5016147;28;20024;-79
2023/01/02 07:42:17;;;;;;;0.40;0.20;;;14.70;75.90;;;;;;5014741;28;20044;-80
2023/01/02 07:44:43;;;;;;;0.10;0.10;;;14.70;75.90;;;;;;5014859;28;20116;-79
2023/01/02 07:47:08;;;;;;;0.15;0.10;;;14.70;75.90;;;;;;5019050;28;20017;-79
2023/01/02 07:49:34;;;;;;;0.10;0.10;;;14.70;75.90;;;;;;5034477;28;20037;-79
2023/01/02 07:51:59;;;;;;;0.10;0.10;;;14.70;75.90;;;;;;5035569;28;20029;-79
2023/01/02 07:54:25;;;;;;;0.55;0.17;;;14.70;76.00;;;;;;5032147;28;20029;-79
2023/01/02 07:56:51;;;;;;;0.28;0.17;;;14.70;75.90;;;;;;5015673;28;20029;-79
2023/01/02 07:59:17;;;;;;;0.10;0.10;;;14.70;76.00;;;;;;5014744;28;20109;-79
2023/01/02 08:01:42;;;;;;;0.30;0.28;;;14.70;76.00;;;;;;5013734;28;20136;-79
2023/01/02 08:04:08;;;;;;;0.00;0.00;;;14.70;76.00;;;;;;5013163;28;20069;-80
2023/01/02 08:06:34;;;;;;;0.10;0.10;;;14.70;76.00;;;;;;5014429;28;20040;-80
2023/01/02 08:08:59;;;;;;;0.20;0.20;;;14.70;76.00;;;;;;5013002;28;20457;-79
2023/01/02 08:11:25;;;;;;;0.32;0.20;;;14.70;75.90;;;;;;5013165;28;20026;-80
2023/01/02 08:13:51;;;;;;;0.47;0.15;;;14.70;75.90;;;;;;5014353;28;20022;-79
2023/01/02 08:16:18;;;;;;;0.50;0.15;;;14.70;75.90;;;;;;5014052;28;20036;-80
2023/01/02 08:18:44;;;;;;;0.45;0.10;;;14.70;75.90;;;;;;5014176;28;20029;-79
2023/01/02 08:21:09;;;;;;;0.32;0.13;;;14.70;75.90;;;;;;4996351;28;20030;-79
2023/01/02 08:23:35;;;;;;;0.22;0.10;;;14.70;76.00;;;;;;5012880;28;20110;-79
2023/01/02 08:26:05;;;;;;;0.20;0.17;;;14.70;76.00;;;;;;5013004;28;20030;-79
2023/01/02 08:28:30;;;;;;;0.15;0.15;;;14.70;75.90;;;;;;5013066;28;20033;-79
2023/01/02 08:30:56;;;;;;;0.13;0.13;;;14.70;75.90;;;;;;5012515;28;20105;-79
2023/01/02 08:33:22;;;;;;;0.30;0.10;;;14.70;75.90;;;;;;5012919;28;20034;-79
2023/01/02 08:35:47;;;;;;;0.52;0.20;;;14.70;75.90;;;;;;5014094;28;20488;-79
2023/01/02 08:38:13;;;;;;;0.50;0.13;;;14.70;75.90;;;;;;5013736;28;20022;-79
2023/01/02 08:40:39;;;;;;;0.28;0.20;;;14.70;75.90;;;;;;5012732;28;20064;-79
2023/01/02 08:43:08;;;;;;;0.43;0.10;;;14.70;75.90;;;;;;5012686;28;20025;-79
2023/01/02 08:45:34;;;;;;;0.30;0.20;;;14.70;75.90;;;;;;5012346;28;20381;-79
2023/01/02 08:47:59;;;;;;;0.10;0.10;;;14.70;75.90;;;;;;5022853;28;20037;-79
2023/01/02 08:50:25;;;;;;;0.00;0.00;;;14.70;75.90;;;;;;5032290;28;20049;-79
2023/01/02 08:52:50;;;;;;;0.40;0.20;;;14.70;75.90;;;;;;5015791;28;20029;-79
2023/01/02 08:55:16;;;;;;;0.20;0.20;;;14.60;75.80;;;;;;5015722;28;20509;-79
2023/01/02 08:57:42;;;;;;;0.57;0.10;;;14.70;75.90;;;;;;5032172;28;20124;-79
2023/01/02 09:00:08;;;;;;;0.10;0.03;;;14.60;75.90;;;;;;5032008;28;20021;-79
2023/01/02 09:02:34;;;;;;;0.55;0.20;;;14.70;75.90;;;;;;4990699;28;1198907;-79
2023/01/02 09:04:59;;;;;;;0.13;0.10;;;14.60;75.90;;;;;;5033158;28;20112;-79
2023/01/02 09:07:25;;;;;;;0.20;0.10;;;14.70;75.90;;;;;;5034203;28;20127;-79
2023/01/02 09:09:51;;;;;;;0.00;0.00;;;14.60;75.90;;;;;;5033195;28;20442;-80
2023/01/02 09:12:16;;;;;;;1.98;0.20;;;14.60;75.90;;;;;;5033960;28;20029;-79
2023/01/02 09:14:42;;;;;;;0.20;0.10;;;14.70;76.00;;;;;;5032789;28;20408;-79
2023/01/02 09:17:08;;;;;;;0.28;0.20;;;14.60;75.90;;;;;;5032871;28;20491;-79
2023/01/02 09:19:34;;;;;;;0.05;0.05;;;14.60;75.90;;;;;;5034056;28;20056;-79
2023/01/02 09:22:00;;;;;;;0.10;0.10;;;14.60;75.90;;;;;;5033976;28;20018;-79
2023/01/02 09:24:26;;;;;;;0.10;0.10;;;14.60;75.80;;;;;;5033856;28;20025;-79
2023/01/02 09:26:52;;;;;;;0.43;0.10;;;14.60;75.90;;;;;;5033751;28;20021;-79
2023/01/02 09:29:18;;;;;;;0.00;0.00;;;14.60;75.90;;;;;;5032660;28;20381;-79
2023/01/02 09:31:43;;;;;;;0.50;0.20;;;14.60;75.90;;;;;;5031922;28;20083;-79
2023/01/02 09:34:09;;;;;;;0.10;0.10;;;14.60;75.90;;;;;;5032352;28;20076;-79
2023/01/02 09:36:35;;;;;;;0.10;0.05;;;14.60;75.80;;;;;;5033717;28;20061;-79
2023/01/02 09:39:01;;;;;;;0.43;0.10;;;14.60;75.90;;;;;;5032322;28;20083;-79
2023/01/02 09:41:34;;;;;;;0.10;0.10;;;14.60;75.80;;;;;;5032350;28;20025;-79
2023/01/02 09:44:11;;;;;;;0.20;0.10;;;14.60;75.90;;;;;;5032288;28;20026;-79
2023/01/02 09:46:55;;;;;;;0.28;0.15;;;14.60;75.90;;;;;;5033579;28;20022;-80
2023/01/02 09:49:22;;;;;;;0.10;0.10;;;14.60;75.90;;;;;;5013732;28;20033;-79
2023/01/02 09:51:47;;;;;;;0.10;0.10;;;14.60;75.90;;;;;;5012350;28;20048;-79
2023/01/02 09:54:21;;;;;;;0.25;0.10;;;14.60;75.90;;;;;;5013988;28;20485;-79
2023/01/02 09:56:48;;;;;;;0.28;0.13;;;14.60;75.80;;;;;;5031835;28;20019;-79
2023/01/02 09:59:35;;;;;;;0.52;0.15;;;14.60;75.90;;;;;;5015987;28;20073;-79
2023/01/02 10:02:28;;;;;;;0.00;0.00;;;14.60;75.90;;;;;;5015616;28;20045;-79
2023/01/02 10:05:21;;;;;;;0.20;0.08;;;14.60;75.90;;;;;;5033242;28;20033;-79
2023/01/02 10:08:10;;;;;;;0.20;0.20;;;14.60;75.90;;;;;;5033088;28;20025;-79
2023/01/02 10:10:43;;;;;;;0.10;0.10;;;14.60;75.90;;;;;;5032102;28;20037;-79
2023/01/02 10:13:32;;;;;;;0.20;0.20;;;14.60;75.90;;;;;;5015269;28;20029;-79
2023/01/02 10:15:59;;;;;;;0.10;0.10;;;14.60;75.90;;;;;;5031916;28;20049;-80
2023/01/02 10:18:36;;;;;;;0.15;0.10;;;14.60;76.00;;;;;;5015469;28;20057;-79
2023/01/02 10:21:06;;;;;;;0.10;0.10;;;14.60;75.90;;;;;;5031613;28;20021;-79
2023/01/02 10:23:35;;;;;;;0.00;0.00;;;14.60;75.90;;;;;;5015809;28;20484;-79
2023/01/02 10:26:05;;;;;;;0.80;0.30;;;14.60;75.90;;;;;;5015195;28;20021;-79
2023/01/02 10:28:40;;;;;;;0.10;0.05;;;14.60;76.00;;;;;;5031762;28;20029;-79
2023/01/02 10:31:37;;;;;;;0.20;0.10;;;14.60;75.90;;;;;;5032661;28;20029;-79
2023/01/02 10:34:03;;;;;;;0.22;0.10;;;14.60;76.00;;;;;;5031536;28;20068;-79
2023/01/02 10:36:33;;;;;;;0.32;0.20;;;14.60;76.00;;;;;;5015245;28;20022;-79
2023/01/02 10:39:00;;;;;;;0.28;0.28;;;14.60;76.00;;;;;;5032462;28;20033;-79
2023/01/02 10:41:26;;;;;;;0.05;0.05;;;14.60;76.00;;;;;;5031362;28;20025;-79
2023/01/02 10:43:58;;;;;;;0.13;0.10;;;14.60;76.00;;;;;;5031494;28;20036;-79
2023/01/02 10:46:28;;;;;;;0.10;0.10;;;14.60;76.00;;;;;;5031375;28;20025;-79
2023/01/02 10:48:54;;;;;;;0.17;0.10;;;14.60;76.00;;;;;;5031230;28;20029;-80
2023/01/02 10:51:19;;;;;;;0.22;0.10;;;14.60;76.00;;;;;;5031132;28;20080;-79
2023/01/02 10:54:07;;;;;;;0.15;0.15;;;14.60;76.00;;;;;;5031434;28;20021;-79
2023/01/02 10:56:34;;;;;;;0.10;0.10;;;14.60;76.00;;;;;;5011343;28;20021;-79
2023/01/02 10:59:00;;;;;;;0.45;0.10;;;14.50;76.00;;;;;;5011442;28;20029;-80
2023/01/02 11:01:26;;;;;;;0.68;0.10;;;14.60;76.00;;;;;;5012475;28;20057;-79
2023/01/02 11:03:54;;;;;;;0.35;0.10;;;14.60;76.00;;;;;;5011561;28;20033;-79
2023/01/02 11:06:22;;;;;;;0.20;0.20;;;14.60;76.00;;;;;;5012473;28;20440;-79
2023/01/02 11:09:01;;;;;;;0.10;0.10;;;14.60;76.00;;;;;;5011411;28;20026;-80
2023/01/02 11:11:28;;;;;;;0.38;0.15;;;14.60;76.00;;;;;;5011185;28;20022;-79
2023/01/02 11:13:54;;;;;;;0.20;0.20;;;14.60;76.00;;;;;;5011599;28;20034;-79
2023/01/02 11:16:24;;;;;;;0.20;0.20;;;14.60;76.10;;;;;;5011227;28;20106;-79
2023/01/02 11:18:57;;;;;;;0.05;0.05;;;14.60;76.10;;;;;;5011277;28;20030;-79
2023/01/02 11:21:37;;;;;;;0.30;0.20;;;14.60;76.00;;;;;;5011358;28;20499;-79
2023/01/02 11:24:14;;;;;;;0.10;0.10;;;14.60;76.00;;;;;;4994630;28;20442;-79
2023/01/02 11:26:40;;;;;;;0.57;0.35;;;14.60;76.00;;;;;;5011363;28;20501;-79
2023/01/02 11:29:13;;;;;;;0.20;0.10;;;14.60;76.10;;;;;;5011245;28;20037;-79
2023/01/02 11:31:46;;;;;;;0.20;0.20;;;14.60;76.10;;;;;;5011085;28;20112;-79
2023/01/02 11:34:23;;;;;;;0.05;0.05;;;14.60;76.20;;;;;;5011038;28;20034;-79
2023/01/02 11:37:10;;;;;;;0.10;0.10;;;14.60;76.10;;;;;;5012412;28;20022;-79
2023/01/02 11:39:36;;;;;;;0.00;0.00;;;14.60;76.10;;;;;;5011964;28;20026;-79
2023/01/02 11:45:11;;;;;;;1.25;0.20;;;14.60;76.10;;;;;;5011261;28;20518;-80
2023/01/02 11:47:50;;;;;;;0.30;0.10;;;14.60;76.20;;;;;;5018353;28;20105;-79
2023/01/02 11:50:29;;;;;;;0.20;0.10;;;14.60;76.20;;;;;;5030694;28;20026;-80
2023/01/02 11:53:19;;;;;;;0.30;0.30;;;14.60;76.20;;;;;;5030367;28;20198;-79
2023/01/02 11:56:12;;;;;;;0.10;0.10;;;14.60;76.20;;;;;;5034414;28;20020;-79
2023/01/02 11:59:02;;;;;;;0.17;0.17;;;14.60;76.30;;;;;;5035661;28;20143;-80
2023/01/02 12:01:46;;;;;;;0.10;0.10;;;14.60;76.30;;;;;;5035529;28;20527;-79
2023/01/02 12:04:12;;;;;;;0.00;0.00;;;14.60;76.30;;;;;;5035402;28;20030;-79
2023/01/02 12:06:56;;;;;;;0.22;0.10;;;14.60;76.20;;;;;;5034231;28;20029;-79
2023/01/02 12:09:40;;;;;;;0.15;0.00;;;14.60;76.30;;;;;;5035119;28;20022;-80
2023/01/02 12:12:32;;;;;;;0.17;0.00;;;14.60;76.30;;;;;;5033883;28;20120;-80
2023/01/02 12:15:06;;;;;;;0.22;0.05;;;14.60;76.30;;;;;;5035307;28;20021;-80
2023/01/02 12:17:35;;;;;;;0.10;0.10;;;14.60;76.30;;;;;;5035409;28;20507;-80
2023/01/02 12:20:49;;;;;;;0.10;0.10;;;14.60;76.30;;;;;;5035162;28;20021;-80
2023/01/02 12:23:45;;;;;;;0.13;0.10;;;14.60;76.30;;;;;;5012801;28;20415;-80
2023/01/02 12:26:21;;;;;;;0.55;0.20;;;14.60;76.40;;;;;;5013228;28;20057;-80
2023/01/02 12:29:07;;;;;;;0.20;0.10;;;14.60;76.30;;;;;;4981030;28;20026;-79
2023/01/02 12:31:36;;;;;;;0.20;0.20;;;14.60;76.40;;;;;;4996717;28;20073;-79
2023/01/02 12:34:13;;;;;;;0.13;0.10;;;14.60;76.50;;;;;;5012677;28;20130;-80
2023/01/02 12:37:11;;;;;;;0.43;0.20;;;14.60;76.50;;;;;;4996715;28;20033;-79
2023/01/02 12:40:21;;;;;;;0.10;0.10;;;14.70;76.50;;;;;;4982788;28;20030;-80
2023/01/02 12:42:55;;;;;;;0.00;0.00;;;14.60;76.50;;;;;;4983067;28;20040;-80
2023/01/02 12:45:31;;;;;;;0.15;0.10;;;14.60;76.50;;;;;;5012791;28;20444;-80
2023/01/02 12:48:08;;;;;;;0.40;0.10;;;14.60;76.60;;;;;;4996822;28;20512;-80
2023/01/02 12:50:54;;;;;;;0.20;0.20;;;14.70;76.70;;;;;;5012982;28;20177;-79
2023/01/02 12:53:42;;;;;;;0.10;0.10;;;14.70;76.60;;;;;;4998308;28;20033;-80
2023/01/02 12:56:16;;;;;;;0.10;0.10;;;14.70;76.70;;;;;;4979080;28;20072;-80
2023/01/02 12:59:03;;;;;;;0.20;0.10;;;14.70;76.70;;;;;;4995194;28;20133;-79
2023/01/02 13:02:06;;;;;;;0.30;0.10;;;14.70;76.70;;;;;;5014490;28;20045;-79
2023/01/02 13:04:40;;;;;;;0.10;0.07;;;14.70;76.70;;;;;;5012480;28;20048;-79
2023/01/02 13:07:19;;;;;;;0.35;0.20;;;14.70;76.70;;;;;;4978402;28;20279;-79
2023/01/02 13:09:45;;;;;;;0.30;0.10;;;14.70;76.70;;;;;;4980640;28;20118;-80
2023/01/02 13:12:13;;;;;;;0.10;0.10;;;14.70;76.70;;;;;;4995969;28;20112;-79